createdAt,value
2019-05-03T00:02:21.671Z,90.90
2019-05-03T00:04:51.675Z,90.70
2019-05-03T00:07:22.222Z,91.10
2019-05-03T00:09:52.051Z,90.90
2019-05-03T00:12:22.120Z,91.20
2019-05-03T00:14:51.982Z,91.30
2019-05-03T00:17:21.866Z,91.30
2019-05-03T00:19:52.841Z,90.60
2019-05-03T00:22:21.709Z,90.60
2019-05-03T00:25:03.091Z,91.00
2019-05-03T00:27:21.789Z,90.80
2019-05-03T00:29:52.267Z,89.70
2019-05-03T00:32:21.669Z,89.40
2019-05-03T00:34:52.367Z,88.20
2019-05-03T00:37:22.658Z,87.80
2019-05-03T00:39:52.826Z,88.40
2019-05-03T00:42:22.516Z,89.10
2019-05-03T00:44:51.755Z,89.30
2019-05-03T00:47:22.218Z,90.90
2019-05-03T00:49:51.844Z,91.50
2019-05-03T00:52:22.251Z,91.80
2019-05-03T00:54:52.735Z,91.70
2019-05-03T00:57:22.721Z,91.60
2019-05-03T00:59:52.810Z,91.50
2019-05-03T01:02:22.351Z,92.00
2019-05-03T01:04:51.798Z,91.50
2019-05-03T01:07:22.124Z,91.80
2019-05-03T01:09:51.776Z,92.30
2019-05-03T01:12:21.934Z,92.20
2019-05-03T01:14:52.885Z,91.30
2019-05-03T01:17:22.463Z,90.90
2019-05-03T01:19:52.592Z,90.70
2019-05-03T01:22:22.638Z,90.60
2019-05-03T01:24:53.845Z,90.30
2019-05-03T01:27:22.721Z,91.10
2019-05-03T01:29:55.692Z,91.40
2019-05-03T01:32:23.958Z,90.90
2019-05-03T01:34:55.502Z,89.30
2019-05-03T01:37:23.994Z,91.10
2019-05-03T01:39:55.753Z,92.00
2019-05-03T01:42:24.433Z,91.50
2019-05-03T01:44:56.515Z,91.10
2019-05-03T01:47:41.996Z,91.30
2019-05-03T01:50:28.810Z,91.60
2019-05-03T01:52:59.042Z,90.00
2019-05-03T01:55:46.537Z,91.30
2019-05-03T01:58:15.170Z,92.70
2019-05-03T02:00:43.774Z,92.70
2019-05-03T02:03:14.997Z,92.60
2019-05-03T02:05:52.025Z,92.80
2019-05-03T02:08:21.998Z,92.70
2019-05-03T02:10:51.806Z,92.80
2019-05-03T02:13:20.236Z,93.00
2019-05-03T02:15:48.715Z,93.20
2019-05-03T02:18:17.333Z,93.50
2019-05-03T02:20:45.668Z,93.80
2019-05-03T02:23:14.298Z,93.70
2019-05-03T02:25:55.389Z,93.90
2019-05-03T02:28:12.983Z,93.10
2019-05-03T02:30:44.124Z,93.40
2019-05-03T02:33:13.390Z,93.90
2019-05-03T02:35:43.000Z,94.40
2019-05-03T02:38:12.958Z,94.30
2019-05-03T02:40:42.973Z,94.30
2019-05-03T02:43:13.207Z,94.30
2019-05-03T02:45:45.587Z,94.40
2019-05-03T02:48:36.490Z,94.10
2019-05-03T02:51:06.515Z,93.90
2019-05-03T02:53:46.693Z,93.90
2019-05-03T02:56:29.825Z,93.60
2019-05-03T02:58:58.444Z,94.10
2019-05-03T03:01:26.921Z,94.30
2019-05-03T03:03:59.989Z,94.70
2019-05-03T03:06:28.451Z,94.70
2019-05-03T03:09:01.453Z,94.50
2019-05-03T03:11:30.605Z,95.10
2019-05-03T03:14:01.767Z,95.00
2019-05-03T03:16:31.032Z,94.80
2019-05-03T03:19:06.234Z,94.90
2019-05-03T03:21:36.271Z,94.90
2019-05-03T03:24:17.505Z,95.10
2019-05-03T03:26:47.280Z,95.20
2019-05-03T03:29:22.051Z,95.00
2019-05-03T03:32:08.441Z,95.20
2019-05-03T03:34:53.309Z,95.30
2019-05-03T03:37:15.576Z,95.40
2019-05-03T03:39:45.543Z,95.50
2019-05-03T03:42:16.215Z,95.70
2019-05-03T03:44:45.370Z,95.60
2019-05-03T03:47:16.770Z,96.00
2019-05-03T03:49:46.815Z,95.70
2019-05-03T03:52:25.470Z,94.90
2019-05-03T03:54:58.566Z,94.00
2019-05-03T03:57:27.322Z,94.40
2019-05-03T03:59:57.870Z,93.80
2019-05-03T04:02:28.047Z,93.60
2019-05-03T04:04:58.339Z,92.80
2019-05-03T04:07:28.155Z,94.60
2019-05-03T04:09:58.530Z,93.40
2019-05-03T04:12:27.161Z,94.90
2019-05-03T04:14:58.648Z,94.60
2019-05-03T04:17:45.612Z,94.50
2019-05-03T04:20:16.495Z,94.70
2019-05-03T04:22:46.425Z,93.20
2019-05-03T04:25:15.568Z,93.80
2019-05-03T04:27:45.546Z,93.00
2019-05-03T04:30:16.577Z,93.10
2019-05-03T04:33:11.551Z,94.50
2019-05-03T04:35:46.563Z,94.00
2019-05-03T04:38:16.261Z,94.00
2019-05-03T04:40:46.909Z,93.80
2019-05-03T04:43:17.033Z,93.80
2019-05-03T04:45:49.771Z,94.10
2019-05-03T04:48:18.739Z,93.80
2019-05-03T04:50:48.944Z,94.10
2019-05-03T04:53:17.751Z,94.40
2019-05-03T04:55:48.655Z,94.20
2019-05-03T04:58:21.084Z,94.10
2019-05-03T05:00:52.204Z,95.10
2019-05-03T05:03:20.774Z,95.50
2019-05-03T05:05:55.363Z,95.30
2019-05-03T05:08:25.300Z,94.00
2019-05-03T05:10:55.906Z,95.00
2019-05-03T05:13:28.704Z,95.70
2019-05-03T05:15:57.254Z,95.90
2019-05-03T05:18:31.319Z,96.00
2019-05-03T05:21:05.110Z,96.10
2019-05-03T05:23:35.480Z,96.30
2019-05-03T05:26:14.481Z,96.00
2019-05-03T05:28:54.872Z,96.10
2019-05-03T05:31:25.429Z,96.30
2019-05-03T05:33:54.521Z,96.60
2019-05-03T05:36:24.394Z,96.50
2019-05-03T05:38:55.877Z,96.80
2019-05-03T05:41:24.755Z,95.70
2019-05-03T05:43:57.421Z,95.90
2019-05-03T05:46:27.699Z,95.40
2019-05-03T05:48:56.323Z,95.90
2019-05-03T05:51:24.938Z,95.80
2019-05-03T05:53:58.670Z,95.30
2019-05-03T05:56:37.712Z,94.90
2019-05-03T05:59:08.053Z,93.60
2019-05-03T06:01:45.608Z,93.50
2019-05-03T06:04:15.397Z,93.50
2019-05-03T06:06:51.607Z,93.90
2019-05-03T06:09:35.396Z,93.20
2019-05-03T06:12:08.535Z,92.60
2019-05-03T06:14:39.712Z,91.90
2019-05-03T06:17:18.930Z,92.30
2019-05-03T06:19:52.664Z,91.60
2019-05-03T06:22:22.860Z,90.00
2019-05-03T06:24:54.801Z,91.30
2019-05-03T06:27:28.150Z,91.70
2019-05-03T06:29:58.876Z,91.80
2019-05-03T06:32:29.522Z,91.90
2019-05-03T06:34:58.534Z,91.40
2019-05-03T06:37:39.127Z,91.40
2019-05-03T06:40:09.629Z,90.60
2019-05-03T06:42:50.978Z,90.40
2019-05-03T06:45:12.078Z,91.30
2019-05-03T06:47:45.919Z,90.40
2019-05-03T06:50:14.354Z,89.90
2019-05-03T06:52:44.544Z,89.70
2019-05-03T06:55:14.564Z,91.00
2019-05-03T06:57:45.606Z,90.30
2019-05-03T07:00:24.747Z,91.60
2019-05-03T07:02:57.837Z,90.90
2019-05-03T07:05:29.564Z,91.50
2019-05-03T07:08:01.396Z,91.40
2019-05-03T07:10:35.282Z,91.00
2019-05-03T07:13:09.217Z,90.80
2019-05-03T07:15:40.010Z,91.80
2019-05-03T07:18:08.951Z,90.70
2019-05-03T07:20:47.250Z,90.40
2019-05-03T07:23:15.788Z,90.30
2019-05-03T07:25:46.775Z,90.90
2019-05-03T07:28:15.454Z,90.30
2019-05-03T07:30:45.455Z,90.80
2019-05-03T07:33:18.991Z,91.00
2019-05-03T07:35:51.317Z,90.80
2019-05-03T07:38:20.444Z,90.30
2019-05-03T07:40:49.749Z,89.20
2019-05-03T07:43:18.944Z,90.10
2019-05-03T07:45:47.479Z,89.10
2019-05-03T07:48:17.088Z,88.30
2019-05-03T07:50:46.344Z,87.40
2019-05-03T07:53:15.284Z,85.20
2019-05-03T07:55:45.796Z,80.90
2019-05-03T07:58:27.160Z,80.90
2019-05-03T08:01:06.204Z,81.40
2019-05-03T08:03:30.286Z,80.20
2019-05-03T08:06:01.787Z,80.80
2019-05-03T08:08:32.194Z,77.00
2019-05-03T08:11:02.064Z,78.20
2019-05-03T08:13:31.500Z,76.00
2019-05-03T08:16:00.268Z,76.60
2019-05-03T08:18:29.118Z,77.90
2019-05-03T08:20:58.666Z,79.80
2019-05-03T08:23:30.303Z,81.20
2019-05-03T08:25:58.892Z,81.80
2019-05-03T08:28:28.430Z,79.50
2019-05-03T08:31:15.126Z,77.70
2019-05-03T08:33:55.333Z,76.70
2019-05-03T08:36:25.690Z,77.90
2019-05-03T08:38:56.370Z,79.10
2019-05-03T08:41:26.504Z,78.30
2019-05-03T08:43:59.434Z,73.90
2019-05-03T08:46:39.097Z,76.60
2019-05-03T08:49:08.781Z,75.40
2019-05-03T08:51:41.030Z,74.20
2019-05-03T08:54:15.968Z,72.20
2019-05-03T08:56:47.874Z,73.70
2019-05-03T08:59:29.694Z,74.20
2019-05-03T09:01:57.074Z,73.80
2019-05-03T09:04:36.631Z,71.10
2019-05-03T09:06:56.119Z,68.90
2019-05-03T09:09:45.970Z,69.40
2019-05-03T09:12:14.596Z,69.60
2019-05-03T09:14:46.379Z,69.00
2019-05-03T09:17:15.276Z,69.70
2019-05-03T09:19:45.347Z,70.00
2019-05-03T09:22:14.797Z,70.30
2019-05-03T09:25:02.067Z,70.10
2019-05-03T09:27:31.199Z,70.60
2019-05-03T09:30:00.173Z,73.70
2019-05-03T09:32:28.518Z,72.40
2019-05-03T09:34:57.240Z,69.80
2019-05-03T09:37:26.154Z,69.10
2019-05-03T09:39:55.169Z,63.60
2019-05-03T09:42:24.779Z,65.70
2019-05-03T09:44:55.434Z,61.10
2019-05-03T09:47:25.209Z,61.50
2019-05-03T09:49:55.865Z,60.70
2019-05-03T09:52:25.117Z,58.30
2019-05-03T09:54:58.406Z,58.10
2019-05-03T09:57:27.825Z,54.50
2019-05-03T10:00:00.143Z,51.80
2019-05-03T10:02:28.975Z,51.60
2019-05-03T10:04:59.187Z,50.60
2019-05-03T10:07:28.869Z,51.80
2019-05-03T10:09:58.652Z,52.90
2019-05-03T10:12:27.100Z,53.70
2019-05-03T10:14:56.400Z,53.70
2019-05-03T10:17:35.035Z,54.60
2019-05-03T10:20:07.294Z,54.80
2019-05-03T10:22:36.817Z,57.00
2019-05-03T10:25:07.570Z,58.60
2019-05-03T10:27:48.072Z,58.90
2019-05-03T10:30:23.500Z,59.20
2019-05-03T10:33:09.827Z,60.90
2019-05-03T10:35:38.816Z,61.90
2019-05-03T10:38:07.785Z,64.20
2019-05-03T10:40:37.187Z,67.10
2019-05-03T10:43:13.286Z,72.80
2019-05-03T10:45:45.022Z,78.70
2019-05-03T10:48:24.841Z,81.50
2019-05-03T10:50:56.413Z,83.50
2019-05-03T10:53:36.586Z,86.80
2019-05-03T10:56:26.764Z,89.00
2019-05-03T10:58:54.938Z,90.80
2019-05-03T11:01:49.922Z,91.40
2019-05-03T11:04:27.164Z,91.70
2019-05-03T11:06:56.017Z,92.90
2019-05-03T11:09:28.742Z,93.10
2019-05-03T11:12:01.647Z,93.30
2019-05-03T11:14:32.198Z,94.00
2019-05-03T11:17:06.369Z,94.30
2019-05-03T11:19:38.235Z,94.50
2019-05-03T11:22:06.881Z,94.90
2019-05-03T11:24:35.837Z,95.00
2019-05-03T11:27:06.092Z,94.80
2019-05-03T11:29:35.573Z,95.00
2019-05-03T11:32:18.067Z,94.90
2019-05-03T11:35:24.592Z,95.00
2019-05-03T11:37:56.362Z,95.00
2019-05-03T11:40:28.650Z,94.90
2019-05-03T11:43:16.527Z,94.70
2019-05-03T11:45:46.214Z,94.90
2019-05-03T11:48:15.004Z,94.30
2019-05-03T11:50:45.304Z,94.50
2019-05-03T11:53:19.888Z,94.50
2019-05-03T11:55:54.951Z,94.10
2019-05-03T11:58:27.078Z,94.70
2019-05-03T12:01:18.852Z,95.60
2019-05-03T12:03:47.484Z,94.60
2019-05-03T12:06:18.363Z,95.00
2019-05-03T12:08:49.547Z,94.90
2019-05-03T12:11:27.163Z,95.00
2019-05-03T12:14:12.482Z,94.80
2019-05-03T12:19:20.048Z,95.00
2019-05-03T12:21:45.809Z,94.80
2019-05-03T12:24:17.666Z,94.60
2019-05-03T12:26:56.404Z,95.20
2019-05-03T12:29:36.272Z,94.80
2019-05-03T12:32:05.265Z,93.80
2019-05-03T12:34:48.306Z,94.30
2019-05-03T12:37:24.458Z,94.30
2019-05-03T12:40:00.832Z,94.80
2019-05-03T12:42:29.968Z,94.30
2019-05-03T12:45:01.856Z,94.10
2019-05-03T12:47:36.730Z,93.50
2019-05-03T12:50:06.831Z,94.10
2019-05-03T12:52:49.878Z,94.90
2019-05-03T12:55:08.474Z,94.60
2019-05-03T12:57:41.317Z,94.00
2019-05-03T13:00:18.348Z,94.20
2019-05-03T13:02:49.440Z,94.00
2019-05-03T13:05:19.700Z,94.20
2019-05-03T13:08:11.361Z,93.90
2019-05-03T13:10:40.673Z,94.40
2019-05-03T13:13:09.863Z,93.90
2019-05-03T13:15:49.272Z,94.00
2019-05-03T13:18:18.425Z,93.50
2019-05-03T13:20:48.886Z,93.60
2019-05-03T13:23:30.269Z,93.80
2019-05-03T13:26:05.577Z,93.70
2019-05-03T13:28:37.368Z,93.80
2019-05-03T13:31:10.562Z,92.60
2019-05-03T13:33:42.716Z,92.80
2019-05-03T13:36:15.199Z,93.30
2019-05-03T13:38:45.412Z,92.90
2019-05-03T13:41:14.931Z,93.50
2019-05-03T13:43:45.790Z,93.10
2019-05-03T13:46:18.325Z,92.80
2019-05-03T13:48:49.267Z,93.20
2019-05-03T13:51:19.071Z,93.50
2019-05-03T13:53:49.445Z,93.10
2019-05-03T13:56:18.094Z,93.50
2019-05-03T13:58:48.398Z,93.50
2019-05-03T14:01:19.087Z,93.10
2019-05-03T14:03:58.173Z,92.50
2019-05-03T14:06:33.660Z,92.50
2019-05-03T14:09:12.752Z,92.60
2019-05-03T14:11:51.860Z,93.30
2019-05-03T14:14:21.989Z,93.00
2019-05-03T14:17:01.090Z,92.70
2019-05-03T14:19:41.783Z,91.70
2019-05-03T14:22:20.493Z,91.40
2019-05-03T14:25:04.595Z,90.20
2019-05-03T14:27:43.075Z,90.20
2019-05-03T14:30:14.687Z,90.60
2019-05-03T14:32:45.309Z,90.90
2019-05-03T14:35:17.757Z,90.20
2019-05-03T14:37:51.646Z,88.50
2019-05-03T14:40:21.614Z,89.50
2019-05-03T14:42:55.521Z,90.40
2019-05-03T14:45:22.725Z,89.70
2019-05-03T14:47:57.751Z,90.20
2019-05-03T14:50:26.620Z,90.10
2019-05-03T14:53:05.229Z,89.00
2019-05-03T14:55:41.565Z,89.90
2019-05-03T14:58:17.512Z,90.30
2019-05-03T15:00:59.756Z,90.40
2019-05-03T15:03:30.132Z,91.10
2019-05-03T15:05:59.559Z,90.80
2019-05-03T15:08:28.869Z,91.00
2019-05-03T15:10:58.324Z,91.80
2019-05-03T15:13:28.136Z,90.80
2019-05-03T15:15:58.584Z,91.60
2019-05-03T15:18:30.069Z,91.60
2019-05-03T15:21:19.690Z,91.20
2019-05-03T15:23:54.688Z,91.10
2019-05-03T15:26:26.254Z,91.50
2019-05-03T15:28:56.192Z,91.50
2019-05-03T15:31:41.790Z,91.50
2019-05-03T15:34:12.176Z,91.00
2019-05-03T15:36:41.274Z,90.80
2019-05-03T15:39:11.611Z,91.40
2019-05-03T15:41:42.266Z,91.60
2019-05-03T15:44:27.757Z,91.30
2019-05-03T15:47:09.585Z,91.30
2019-05-03T15:49:35.749Z,90.70
2019-05-03T15:52:04.769Z,90.40
2019-05-03T15:54:35.202Z,91.00
2019-05-03T15:57:05.623Z,91.00
2019-05-03T15:59:35.405Z,90.30
2019-05-03T16:02:18.773Z,90.70
2019-05-03T16:04:52.196Z,91.10
2019-05-03T16:07:26.034Z,90.80
2019-05-03T16:09:58.075Z,89.40
2019-05-03T16:12:26.685Z,90.30
2019-05-03T16:14:59.520Z,88.70
2019-05-03T16:17:35.295Z,89.20
2019-05-03T16:20:10.887Z,90.00
2019-05-03T16:22:39.614Z,90.00
2019-05-03T16:25:14.179Z,89.30
2019-05-03T16:28:00.025Z,89.00
2019-05-03T16:30:49.236Z,89.00
2019-05-03T16:33:27.188Z,90.80
2019-05-03T16:35:52.042Z,90.10
2019-05-03T16:38:28.672Z,90.20
2019-05-03T16:40:57.136Z,90.40
2019-05-03T16:43:27.555Z,90.00
2019-05-03T16:46:00.311Z,89.30
2019-05-03T16:48:35.173Z,86.80
2019-05-03T16:51:09.356Z,88.20
2019-05-03T16:53:44.521Z,89.70
2019-05-03T16:56:24.528Z,91.70
2019-05-03T16:58:55.014Z,90.20
2019-05-03T17:01:24.426Z,89.60
2019-05-03T17:04:00.376Z,90.30
2019-05-03T17:06:39.932Z,89.40
2019-05-03T17:09:14.550Z,89.70
2019-05-03T17:11:43.361Z,90.60
2019-05-03T17:14:15.959Z,90.80
2019-05-03T17:16:55.408Z,91.40
2019-05-03T17:19:29.943Z,90.30
2019-05-03T17:22:00.968Z,91.00
2019-05-03T17:24:35.666Z,91.10
2019-05-03T17:27:06.909Z,90.60
2019-05-03T17:29:36.490Z,90.40
2019-05-03T17:32:05.145Z,90.60
2019-05-03T17:34:39.252Z,91.70
2019-05-03T17:37:09.145Z,91.30
2019-05-03T17:39:46.685Z,90.50
2019-05-03T17:42:29.881Z,92.30
2019-05-03T17:44:59.071Z,92.50
2019-05-03T17:47:28.907Z,93.00
2019-05-03T17:50:05.292Z,93.70
2019-05-03T17:52:50.543Z,93.80
2019-05-03T17:55:32.858Z,94.40
2019-05-03T17:58:24.292Z,94.90
2019-05-03T18:00:57.423Z,94.90
2019-05-03T18:03:28.016Z,95.20
2019-05-03T18:06:04.691Z,95.50
2019-05-03T18:08:36.093Z,95.60
2019-05-03T18:11:12.495Z,96.40
2019-05-03T18:13:41.204Z,96.70
2019-05-03T18:16:09.741Z,96.20
2019-05-03T18:18:38.400Z,96.50
2019-05-03T18:21:07.338Z,96.50
2019-05-03T18:23:36.693Z,96.80
2019-05-03T18:26:05.811Z,96.90
2019-05-03T18:28:35.603Z,97.00
2019-05-03T18:31:05.156Z,97.10
2019-05-03T18:33:33.989Z,97.20
2019-05-03T18:36:02.665Z,96.90
2019-05-03T18:38:35.219Z,96.90
2019-05-03T18:41:04.988Z,96.90
2019-05-03T18:43:35.572Z,97.10
2019-05-03T18:46:09.116Z,97.10
2019-05-03T18:48:41.175Z,97.40
2019-05-03T18:51:17.490Z,98.10
2019-05-03T18:53:57.625Z,97.50
2019-05-03T18:56:29.192Z,97.30
2019-05-03T18:59:04.958Z,97.30
2019-05-03T19:01:35.451Z,97.80
2019-05-03T19:04:14.562Z,98.20
2019-05-03T19:06:48.517Z,97.90
2019-05-03T19:09:25.061Z,97.60
2019-05-03T19:11:56.777Z,97.40
2019-05-03T19:14:27.742Z,97.30
2019-05-03T19:17:02.262Z,97.30
2019-05-03T19:19:35.141Z,97.50
2019-05-03T19:22:06.218Z,97.30
2019-05-03T19:24:41.337Z,96.80
2019-05-03T19:27:12.636Z,97.20
2019-05-03T19:29:41.323Z,97.50
2019-05-03T19:32:11.041Z,97.40
2019-05-03T19:34:48.436Z,97.70
2019-05-03T19:37:14.212Z,97.90
2019-05-03T19:39:42.799Z,97.90
2019-05-03T19:42:13.092Z,97.90
2019-05-03T19:44:46.093Z,98.10
2019-05-03T19:47:16.336Z,98.30
2019-05-03T19:49:46.657Z,98.70
2019-05-03T19:52:19.017Z,98.70
2019-05-03T19:55:01.178Z,98.90
2019-05-03T19:57:38.781Z,99.30
2019-05-03T20:00:09.849Z,99.80
2019-05-03T20:02:49.429Z,99.90
2019-05-03T20:05:34.485Z,99.90
2019-05-03T20:08:09.108Z,99.80
2019-05-03T20:10:39.570Z,99.80
2019-05-03T20:13:12.037Z,99.60
2019-05-03T20:15:44.922Z,99.50
2019-05-03T20:18:30.014Z,99.60
2019-05-03T20:20:59.686Z,99.60
2019-05-03T20:23:37.965Z,99.20
2019-05-03T20:26:10.531Z,99.20
2019-05-03T20:28:39.630Z,98.90
2019-05-03T20:31:09.186Z,98.80
2019-05-03T20:33:45.763Z,98.70
2019-05-03T20:36:25.536Z,98.70
2019-05-03T20:39:05.465Z,99.00
2019-05-03T20:41:31.330Z,98.70
2019-05-03T20:44:10.857Z,98.60
2019-05-03T20:46:47.040Z,99.10
2019-05-03T20:49:16.574Z,98.90
2019-05-03T20:51:49.580Z,99.30
2019-05-03T20:54:18.098Z,99.10
2019-05-03T20:56:51.841Z,98.80
2019-05-03T20:59:21.588Z,98.80
2019-05-03T21:01:54.528Z,99.10
2019-05-03T21:04:26.497Z,99.30
2019-05-03T21:06:55.513Z,99.40
2019-05-03T21:09:27.799Z,99.40
2019-05-03T21:11:58.366Z,99.40
2019-05-03T21:14:29.397Z,99.60
2019-05-03T21:17:18.540Z,99.60
2019-05-03T21:19:50.606Z,99.40
2019-05-03T21:22:24.818Z,99.70
2019-05-03T21:24:55.334Z,99.90
2019-05-03T21:27:24.639Z,99.70
2019-05-03T21:29:56.062Z,99.90
2019-05-03T21:32:28.884Z,99.90
2019-05-03T21:34:58.299Z,99.90
2019-05-03T21:37:27.966Z,99.90
2019-05-03T21:39:56.734Z,99.90
2019-05-03T21:42:30.236Z,99.90
2019-05-03T21:44:58.798Z,99.80
2019-05-03T21:47:29.036Z,99.80
2019-05-03T21:49:59.539Z,99.90
2019-05-03T21:52:28.204Z,99.90
2019-05-03T21:54:57.128Z,99.90
2019-05-03T21:57:25.868Z,99.90
2019-05-03T21:59:54.991Z,99.90
2019-05-03T22:02:24.690Z,99.90
2019-05-03T22:05:01.060Z,99.90
2019-05-03T22:07:29.863Z,99.90
2019-05-03T22:10:11.764Z,99.90
2019-05-03T22:12:47.418Z,99.90
2019-05-03T22:15:39.981Z,99.90
2019-05-03T22:18:18.867Z,99.90
2019-05-03T22:21:02.377Z,99.90
2019-05-03T22:23:38.667Z,99.90
2019-05-03T22:26:08.082Z,99.90
2019-05-03T22:28:36.692Z,99.90
2019-05-03T22:31:06.831Z,99.90
2019-05-03T22:33:35.514Z,99.90
2019-05-03T22:36:08.684Z,99.90
2019-05-03T22:38:38.300Z,99.90
2019-05-03T22:41:07.355Z,99.90
2019-05-03T22:43:35.812Z,99.90
2019-05-03T22:46:14.447Z,99.90
2019-05-03T22:48:42.234Z,99.90
2019-05-03T22:51:17.176Z,99.90
2019-05-03T22:53:46.241Z,99.90
2019-05-03T22:56:14.868Z,99.90
2019-05-03T22:58:45.636Z,99.90
2019-05-03T23:01:25.630Z,99.90
2019-05-03T23:03:55.157Z,99.90
2019-05-03T23:06:25.178Z,99.90
2019-05-03T23:08:56.394Z,99.90
2019-05-03T23:11:25.029Z,99.90
2019-05-03T23:14:04.928Z,99.90
2019-05-03T23:16:45.105Z,99.90
2019-05-03T23:19:14.678Z,99.90
2019-05-03T23:22:15.351Z,99.90
2019-05-03T23:24:44.548Z,99.90
2019-05-03T23:27:38.358Z,99.90
2019-05-03T23:30:24.780Z,99.90
2019-05-03T23:32:56.464Z,99.90
2019-05-03T23:35:30.992Z,99.90
2019-05-03T23:38:00.099Z,99.90
2019-05-03T23:40:28.727Z,99.90
2019-05-03T23:43:09.568Z,99.90
2019-05-03T23:45:50.228Z,99.90
2019-05-03T23:48:26.389Z,99.90
2019-05-03T23:50:55.938Z,99.90
2019-05-03T23:53:25.801Z,99.90
2019-05-03T23:56:04.403Z,99.90
2019-05-03T23:58:41.900Z,99.90
